sensor_id;sensor_type;location;lat;lon;timestamp;pressure;altitude;pressure_sealevel;temperature;humidity
62634;BME280;48704;50.534;6.442;2022-10-16T00:02:16;95175.91;;;10.64;100.00
62634;BME280;48704;50.534;6.442;2022-10-16T00:04:42;95184.00;;;10.62;100.00
62634;BME280;48704;50.534;6.442;2022-10-16T00:07:07;95189.56;;;10.62;100.00
62634;BME280;48704;50.534;6.442;2022-10-16T00:09:32;95181.22;;;10.62;100.00
62634;BME280;48704;50.534;6.442;2022-10-16T00:11:58;95174.78;;;10.56;100.00
62634;BME280;48704;50.534;6.442;2022-10-16T00:14:23;95168.47;;;10.56;100.00
62634;BME280;48704;50.534;6.442;2022-10-16T00:16:48;95176.59;;;10.59;100.00
62634;BME280;48704;50.534;6.442;2022-10-16T00:19:14;95179.31;;;10.54;100.00
62634;BME280;48704;50.534;6.442;2022-10-16T00:21:39;95160.59;;;10.54;100.00
62634;BME280;48704;50.534;6.442;2022-10-16T00:24:07;95151.75;;;10.56;100.00
62634;BME280;48704;50.534;6.442;2022-10-16T00:26:37;95168.47;;;10.56;100.00
62634;BME280;48704;50.534;6.442;2022-10-16T00:29:03;95177.31;;;10.54;100.00
62634;BME280;48704;50.534;6.442;2022-10-16T00:31:29;95174.03;;;10.56;100.00
62634;BME280;48704;50.534;6.442;2022-10-16T00:33:55;95166.66;;;10.53;100.00
62634;BME280;48704;50.534;6.442;2022-10-16T00:36:23;95175.50;;;10.51;100.00
62634;BME280;48704;50.534;6.442;2022-10-16T00:38:54;95173.94;;;10.50;100.00
62634;BME280;48704;50.534;6.442;2022-10-16T00:41:20;95169.06;;;10.45;100.00
62634;BME280;48704;50.534;6.442;2022-10-16T00:43:49;95167.75;;;10.41;100.00
62634;BME280;48704;50.534;6.442;2022-10-16T00:46:24;95168.47;;;10.35;100.00
62634;BME280;48704;50.534;6.442;2022-10-16T00:48:54;95155.63;;;10.44;100.00
62634;BME280;48704;50.534;6.442;2022-10-16T00:51:25;95152.09;;;10.23;100.00
62634;BME280;48704;50.534;6.442;2022-10-16T00:53:52;95148.59;;;10.48;100.00
62634;BME280;48704;50.534;6.442;2022-10-16T00:56:18;95155.16;;;10.25;100.00
62634;BME280;48704;50.534;6.442;2022-10-16T00:58:43;95148.81;;;10.24;100.00
62634;BME280;48704;50.534;6.442;2022-10-16T01:01:09;95170.22;;;10.18;100.00
62634;BME280;48704;50.534;6.442;2022-10-16T01:03:36;95171.31;;;10.41;100.00
62634;BME280;48704;50.534;6.442;2022-10-16T01:06:11;95175.28;;;10.34;100.00
62634;BME280;48704;50.534;6.442;2022-10-16T01:11:33;95193.31;;;10.39;100.00
62634;BME280;48704;50.534;6.442;2022-10-16T01:14:06;95178.13;;;10.40;100.00
62634;BME280;48704;50.534;6.442;2022-10-16T01:16:44;95177.78;;;10.32;100.00
62634;BME280;48704;50.534;6.442;2022-10-16T01:19:23;95176.88;;;10.21;100.00
62634;BME280;48704;50.534;6.442;2022-10-16T01:21:53;95193.56;;;10.21;100.00
62634;BME280;48704;50.534;6.442;2022-10-16T01:27:07;95180.72;;;10.09;100.00
62634;BME280;48704;50.534;6.442;2022-10-16T01:29:53;95193.25;;;10.19;100.00
62634;BME280;48704;50.534;6.442;2022-10-16T01:32:33;95205.28;;;10.25;100.00
62634;BME280;48704;50.534;6.442;2022-10-16T01:35:09;95202.38;;;10.34;100.00
62634;BME280;48704;50.534;6.442;2022-10-16T01:40:11;95205.63;;;10.32;100.00
62634;BME280;48704;50.534;6.442;2022-10-16T01:42:48;95180.09;;;10.34;100.00
62634;BME280;48704;50.534;6.442;2022-10-16T01:45:17;95176.81;;;10.35;100.00
62634;BME280;48704;50.534;6.442;2022-10-16T01:47:45;95186.44;;;10.34;100.00
62634;BME280;48704;50.534;6.442;2022-10-16T01:50:12;95185.66;;;10.34;100.00
62634;BME280;48704;50.534;6.442;2022-10-16T01:52:42;95192.97;;;10.31;100.00
62634;BME280;48704;50.534;6.442;2022-10-16T01:55:10;95187.75;;;10.39;100.00
62634;BME280;48704;50.534;6.442;2022-10-16T01:57:40;95174.81;;;10.36;100.00
62634;BME280;48704;50.534;6.442;2022-10-16T02:00:10;95182.72;;;10.43;100.00
62634;BME280;48704;50.534;6.442;2022-10-16T02:02:42;95191.16;;;10.49;100.00
62634;BME280;48704;50.534;6.442;2022-10-16T02:05:30;95188.44;;;10.54;100.00
62634;BME280;48704;50.534;6.442;2022-10-16T02:07:56;95198.06;;;10.53;100.00
62634;BME280;48704;50.534;6.442;2022-10-16T02:10:23;95183.63;;;10.55;100.00
62634;BME280;48704;50.534;6.442;2022-10-16T02:12:58;95192.47;;;10.53;100.00
62634;BME280;48704;50.534;6.442;2022-10-16T02:15:24;95198.25;;;10.50;100.00
62634;BME280;48704;50.534;6.442;2022-10-16T02:17:49;95205.97;;;10.40;100.00
62634;BME280;48704;50.534;6.442;2022-10-16T02:20:15;95207.75;;;10.37;100.00
62634;BME280;48704;50.534;6.442;2022-10-16T02:22:44;95207.75;;;10.37;100.00
62634;BME280;48704;50.534;6.442;2022-10-16T02:25:24;95210.25;;;10.35;100.00
62634;BME280;48704;50.534;6.442;2022-10-16T02:30:42;95209.47;;;10.35;100.00
62634;BME280;48704;50.534;6.442;2022-10-16T02:33:10;95214.97;;;10.50;100.00
62634;BME280;48704;50.534;6.442;2022-10-16T02:35:39;95225.91;;;10.53;100.00
62634;BME280;48704;50.534;6.442;2022-10-16T02:38:07;95228.00;;;10.58;100.00
62634;BME280;48704;50.534;6.442;2022-10-16T02:40:34;95217.16;;;10.60;100.00
62634;BME280;48704;50.534;6.442;2022-10-16T02:42:59;95211.56;;;10.60;100.00
62634;BME280;48704;50.534;6.442;2022-10-16T02:45:25;95186.09;;;10.67;100.00
62634;BME280;48704;50.534;6.442;2022-10-16T02:47:50;95185.59;;;10.69;100.00
62634;BME280;48704;50.534;6.442;2022-10-16T02:50:16;95193.41;;;10.65;100.00
62634;BME280;48704;50.534;6.442;2022-10-16T02:52:41;95189.72;;;10.74;100.00
62634;BME280;48704;50.534;6.442;2022-10-16T02:55:07;95190.69;;;10.70;100.00
62634;BME280;48704;50.534;6.442;2022-10-16T02:57:32;95191.94;;;10.69;100.00
62634;BME280;48704;50.534;6.442;2022-10-16T02:59:58;95186.91;;;10.74;100.00
62634;BME280;48704;50.534;6.442;2022-10-16T03:02:23;95183.56;;;10.69;100.00
62634;BME280;48704;50.534;6.442;2022-10-16T03:04:49;95192.22;;;10.71;100.00
62634;BME280;48704;50.534;6.442;2022-10-16T03:07:14;95182.59;;;10.73;100.00
62634;BME280;48704;50.534;6.442;2022-10-16T03:09:40;95192.78;;;10.76;100.00
62634;BME280;48704;50.534;6.442;2022-10-16T03:12:05;95200.13;;;10.79;100.00
62634;BME280;48704;50.534;6.442;2022-10-16T03:14:31;95188.00;;;10.82;100.00
62634;BME280;48704;50.534;6.442;2022-10-16T03:16:56;95189.81;;;10.85;100.00
62634;BME280;48704;50.534;6.442;2022-10-16T03:19:21;95195.94;;;10.89;100.00
62634;BME280;48704;50.534;6.442;2022-10-16T03:21:47;95193.44;;;10.91;100.00
62634;BME280;48704;50.534;6.442;2022-10-16T03:24:12;95186.59;;;10.92;100.00
62634;BME280;48704;50.534;6.442;2022-10-16T03:26:37;95171.41;;;10.93;100.00
62634;BME280;48704;50.534;6.442;2022-10-16T03:29:03;95176.28;;;10.98;100.00
62634;BME280;48704;50.534;6.442;2022-10-16T03:31:29;95187.72;;;11.00;100.00
62634;BME280;48704;50.534;6.442;2022-10-16T03:33:55;95193.56;;;11.02;100.00
62634;BME280;48704;50.534;6.442;2022-10-16T03:36:20;95195.09;;;11.03;100.00
62634;BME280;48704;50.534;6.442;2022-10-16T03:38:46;95194.91;;;11.07;100.00
62634;BME280;48704;50.534;6.442;2022-10-16T03:41:11;95190.09;;;11.07;100.00
62634;BME280;48704;50.534;6.442;2022-10-16T03:43:36;95193.16;;;11.09;100.00
62634;BME280;48704;50.534;6.442;2022-10-16T03:46:01;95197.47;;;11.10;100.00
62634;BME280;48704;50.534;6.442;2022-10-16T03:48:27;95201.03;;;11.11;100.00
62634;BME280;48704;50.534;6.442;2022-10-16T03:50:52;95201.78;;;11.11;100.00
62634;BME280;48704;50.534;6.442;2022-10-16T03:53:18;95194.69;;;11.10;100.00
62634;BME280;48704;50.534;6.442;2022-10-16T03:55:44;95200.25;;;11.10;100.00
62634;BME280;48704;50.534;6.442;2022-10-16T03:58:09;95199.78;;;11.12;100.00
62634;BME280;48704;50.534;6.442;2022-10-16T04:00:35;95194.97;;;11.12;100.00
62634;BME280;48704;50.534;6.442;2022-10-16T04:03:00;95190.63;;;11.11;100.00
62634;BME280;48704;50.534;6.442;2022-10-16T04:05:26;95201.03;;;11.11;100.00
62634;BME280;48704;50.534;6.442;2022-10-16T04:07:51;95193.56;;;11.02;100.00
62634;BME280;48704;50.534;6.442;2022-10-16T04:10:17;95187.03;;;11.05;100.00
62634;BME280;48704;50.534;6.442;2022-10-16T04:12:42;95197.13;;;11.02;100.00
62634;BME280;48704;50.534;6.442;2022-10-16T04:15:08;95208.06;;;11.06;100.00
62634;BME280;48704;50.534;6.442;2022-10-16T04:17:33;95216.44;;;11.06;100.00
62634;BME280;48704;50.534;6.442;2022-10-16T04:19:58;95207.50;;;11.02;100.00
62634;BME280;48704;50.534;6.442;2022-10-16T04:22:24;95196.63;;;11.04;100.00
62634;BME280;48704;50.534;6.442;2022-10-16T04:24:49;95212.38;;;11.07;100.00
62634;BME280;48704;50.534;6.442;2022-10-16T04:27:14;95211.13;;;11.08;100.00
62634;BME280;48704;50.534;6.442;2022-10-16T04:29:39;95212.19;;;11.11;100.00
62634;BME280;48704;50.534;6.442;2022-10-16T04:32:05;95214.47;;;11.12;100.00
62634;BME280;48704;50.534;6.442;2022-10-16T04:34:30;95208.91;;;11.12;100.00
62634;BME280;48704;50.534;6.442;2022-10-16T04:36:55;95227.16;;;11.13;100.00
62634;BME280;48704;50.534;6.442;2022-10-16T04:39:21;95230.19;;;11.15;100.00
62634;BME280;48704;50.534;6.442;2022-10-16T04:41:46;95222.09;;;11.17;100.00
62634;BME280;48704;50.534;6.442;2022-10-16T04:44:11;95233.06;;;11.21;100.00
62634;BME280;48704;50.534;6.442;2022-10-16T04:46:36;95241.91;;;11.19;100.00
62634;BME280;48704;50.534;6.442;2022-10-16T04:49:02;95238.06;;;11.17;100.00
62634;BME280;48704;50.534;6.442;2022-10-16T04:51:27;95236.81;;;11.18;100.00
62634;BME280;48704;50.534;6.442;2022-10-16T04:53:53;95244.41;;;11.17;100.00
62634;BME280;48704;50.534;6.442;2022-10-16T04:56:20;95248.47;;;11.16;100.00
62634;BME280;48704;50.534;6.442;2022-10-16T04:58:46;95250.75;;;11.18;100.00
62634;BME280;48704;50.534;6.442;2022-10-16T05:01:11;95259.34;;;11.14;100.00
62634;BME280;48704;50.534;6.442;2022-10-16T05:03:37;95247.94;;;11.12;100.00
62634;BME280;48704;50.534;6.442;2022-10-16T05:06:05;95257.56;;;11.11;100.00
62634;BME280;48704;50.534;6.442;2022-10-16T05:08:30;95256.03;;;11.10;100.00
62634;BME280;48704;50.534;6.442;2022-10-16T05:10:55;95260.88;;;11.15;100.00
62634;BME280;48704;50.534;6.442;2022-10-16T05:13:21;95245.41;;;11.14;100.00
62634;BME280;48704;50.534;6.442;2022-10-16T05:15:47;95246.69;;;11.13;100.00
62634;BME280;48704;50.534;6.442;2022-10-16T05:18:13;95236.50;;;11.10;100.00
62634;BME280;48704;50.534;6.442;2022-10-16T05:20:38;95247.94;;;11.12;100.00
62634;BME280;48704;50.534;6.442;2022-10-16T05:23:03;95251.97;;;11.11;100.00
62634;BME280;48704;50.534;6.442;2022-10-16T05:25:29;95251.69;;;11.09;100.00
62634;BME280;48704;50.534;6.442;2022-10-16T05:27:54;95255.19;;;11.04;100.00
62634;BME280;48704;50.534;6.442;2022-10-16T05:30:19;95263.84;;;11.06;100.00
62634;BME280;48704;50.534;6.442;2022-10-16T05:32:49;95256.03;;;11.10;100.00
62634;BME280;48704;50.534;6.442;2022-10-16T05:35:15;95271.22;;;11.09;100.00
62634;BME280;48704;50.534;6.442;2022-10-16T05:37:41;95280.84;;;11.08;100.00
62634;BME280;48704;50.534;6.442;2022-10-16T05:40:06;95285.44;;;11.11;100.00
62634;BME280;48704;50.534;6.442;2022-10-16T05:42:32;95287.22;;;11.14;100.00
62634;BME280;48704;50.534;6.442;2022-10-16T05:44:57;95286.97;;;11.12;100.00
62634;BME280;48704;50.534;6.442;2022-10-16T05:47:23;95283.13;;;11.10;100.00
62634;BME280;48704;50.534;6.442;2022-10-16T05:49:48;95291.00;;;11.11;100.00
62634;BME280;48704;50.534;6.442;2022-10-16T05:52:13;95295.81;;;11.11;100.00
62634;BME280;48704;50.534;6.442;2022-10-16T05:54:38;95300.63;;;11.10;100.00
62634;BME280;48704;50.534;6.442;2022-10-16T05:57:04;95310.94;;;11.04;100.00
62634;BME280;48704;50.534;6.442;2022-10-16T05:59:31;95322.78;;;10.99;100.00
62634;BME280;48704;50.534;6.442;2022-10-16T06:01:56;95326.16;;;11.03;100.00
62634;BME280;48704;50.534;6.442;2022-10-16T06:04:21;95332.69;;;11.00;100.00
62634;BME280;48704;50.534;6.442;2022-10-16T06:06:47;95338.00;;;10.98;100.00
62634;BME280;48704;50.534;6.442;2022-10-16T06:09:12;95340.09;;;11.03;100.00
62634;BME280;48704;50.534;6.442;2022-10-16T06:11:37;95337.56;;;11.05;100.00
62634;BME280;48704;50.534;6.442;2022-10-16T06:14:03;95344.28;;;11.13;100.00
62634;BME280;48704;50.534;6.442;2022-10-16T06:16:35;95346.78;;;11.11;100.00
62634;BME280;48704;50.534;6.442;2022-10-16T06:19:01;95352.38;;;11.11;100.00
62634;BME280;48704;50.534;6.442;2022-10-16T06:21:28;95345.25;;;11.10;100.00
62634;BME280;48704;50.534;6.442;2022-10-16T06:23:54;95349.50;;;11.05;100.00
62634;BME280;48704;50.534;6.442;2022-10-16T06:26:22;95339.59;;;11.04;100.00
62634;BME280;48704;50.534;6.442;2022-10-16T06:28:48;95350.81;;;11.10;100.00
62634;BME280;48704;50.534;6.442;2022-10-16T06:31:14;95356.69;;;11.12;100.00
62634;BME280;48704;50.534;6.442;2022-10-16T06:33:40;95357.94;;;11.11;100.00
62634;BME280;48704;50.534;6.442;2022-10-16T06:36:07;95355.44;;;11.13;100.00
62634;BME280;48704;50.534;6.442;2022-10-16T06:38:33;95362.53;;;11.14;100.00
62634;BME280;48704;50.534;6.442;2022-10-16T06:40:59;95368.09;;;11.14;100.00
62634;BME280;48704;50.534;6.442;2022-10-16T06:43:24;95367.84;;;11.12;100.00
62634;BME280;48704;50.534;6.442;2022-10-16T06:45:53;95366.78;;;11.10;100.00
62634;BME280;48704;50.534;6.442;2022-10-16T06:48:20;95380.78;;;11.15;100.00
62634;BME280;48704;50.534;6.442;2022-10-16T06:51:11;95380.78;;;11.15;100.00
62634;BME280;48704;50.534;6.442;2022-10-16T06:53:41;95381.63;;;11.21;100.00
62634;BME280;48704;50.534;6.442;2022-10-16T06:56:10;95394.59;;;11.24;100.00
62634;BME280;48704;50.534;6.442;2022-10-16T06:58:36;95395.16;;;11.28;100.00
62634;BME280;48704;50.534;6.442;2022-10-16T07:01:02;95394.19;;;11.31;100.00
62634;BME280;48704;50.534;6.442;2022-10-16T07:03:28;95397.97;;;11.28;100.00
62634;BME280;48704;50.534;6.442;2022-10-16T07:05:53;95412.09;;;11.25;100.00
62634;BME280;48704;50.534;6.442;2022-10-16T07:08:18;95416.44;;;11.26;100.00
62634;BME280;48704;50.534;6.442;2022-10-16T07:10:44;95423.63;;;11.32;100.00
62634;BME280;48704;50.534;6.442;2022-10-16T07:13:09;95430.75;;;11.33;100.00
62634;BME280;48704;50.534;6.442;2022-10-16T07:15:38;95444.50;;;11.37;100.00
62634;BME280;48704;50.534;6.442;2022-10-16T07:18:03;95439.38;;;11.35;100.00
62634;BME280;48704;50.534;6.442;2022-10-16T07:20:29;95451.13;;;11.39;100.00
62634;BME280;48704;50.534;6.442;2022-10-16T07:22:54;95445.13;;;11.47;100.00
62634;BME280;48704;50.534;6.442;2022-10-16T07:25:19;95457.53;;;11.46;100.00
62634;BME280;48704;50.534;6.442;2022-10-16T07:27:44;95463.41;;;11.48;100.00
62634;BME280;48704;50.534;6.442;2022-10-16T07:30:10;95461.88;;;11.47;100.00
62634;BME280;48704;50.534;6.442;2022-10-16T07:32:35;95467.16;;;11.45;100.00
62634;BME280;48704;50.534;6.442;2022-10-16T07:35:01;95469.59;;;11.37;100.00
62634;BME280;48704;50.534;6.442;2022-10-16T07:37:26;95479.28;;;11.42;100.00
62634;BME280;48704;50.534;6.442;2022-10-16T07:39:51;95483.22;;;11.50;100.00
62634;BME280;48704;50.534;6.442;2022-10-16T07:42:17;95493.38;;;11.53;100.00
62634;BME280;48704;50.534;6.442;2022-10-16T07:44:42;95490.34;;;11.51;100.00
62634;BME280;48704;50.534;6.442;2022-10-16T07:47:08;95491.66;;;11.55;100.00
62634;BME280;48704;50.534;6.442;2022-10-16T07:49:38;95503.00;;;11.52;100.00
62634;BME280;48704;50.534;6.442;2022-10-16T07:52:04;95510.69;;;11.57;100.00
62634;BME280;48704;50.534;6.442;2022-10-16T07:54:29;95512.22;;;11.58;100.00
62634;BME280;48704;50.534;6.442;2022-10-16T07:56:54;95515.94;;;11.49;100.00
62634;BME280;48704;50.534;6.442;2022-10-16T07:59:20;95511.47;;;11.57;100.00
62634;BME280;48704;50.534;6.442;2022-10-16T08:01:45;95513.16;;;11.69;100.00
62634;BME280;48704;50.534;6.442;2022-10-16T08:04:10;95523.34;;;11.87;100.00
62634;BME280;48704;50.534;6.442;2022-10-16T08:06:38;95526.53;;;12.00;100.00
62634;BME280;48704;50.534;6.442;2022-10-16T08:09:05;95529.53;;;11.97;100.00
62634;BME280;48704;50.534;6.442;2022-10-16T08:11:31;95533.66;;;12.01;100.00
62634;BME280;48704;50.534;6.442;2022-10-16T08:13:56;95537.91;;;12.17;100.00
62634;BME280;48704;50.534;6.442;2022-10-16T08:16:22;95543.34;;;12.26;100.00
62634;BME280;48704;50.534;6.442;2022-10-16T08:18:47;95549.28;;;12.34;100.00
62634;BME280;48704;50.534;6.442;2022-10-16T08:21:15;95558.06;;;12.47;100.00
62634;BME280;48704;50.534;6.442;2022-10-16T08:23:41;95558.63;;;12.51;100.00
62634;BME280;48704;50.534;6.442;2022-10-16T08:26:07;95563.09;;;12.43;100.00
62634;BME280;48704;50.534;6.442;2022-10-16T08:28:33;95557.66;;;12.54;100.00
62634;BME280;48704;50.534;6.442;2022-10-16T08:31:15;95557.22;;;12.61;100.00
62634;BME280;48704;50.534;6.442;2022-10-16T08:33:43;95570.22;;;12.44;100.00
62634;BME280;48704;50.534;6.442;2022-10-16T08:36:10;95566.66;;;12.44;100.00
62634;BME280;48704;50.534;6.442;2022-10-16T08:38:37;95579.44;;;12.50;100.00
62634;BME280;48704;50.534;6.442;2022-10-16T08:41:25;95575.50;;;12.62;100.00
62634;BME280;48704;50.534;6.442;2022-10-16T08:49:40;95568.53;;;13.04;100.00
62634;BME280;48704;50.534;6.442;2022-10-16T08:52:12;95566.28;;;13.08;100.00
62634;BME280;48704;50.534;6.442;2022-10-16T08:54:42;95563.06;;;13.15;100.00
62634;BME280;48704;50.534;6.442;2022-10-16T08:57:30;95562.38;;;13.20;100.00
62634;BME280;48704;50.534;6.442;2022-10-16T09:00:00;95570.75;;;13.52;100.00
62634;BME280;48704;50.534;6.442;2022-10-16T09:02:54;95568.78;;;13.58;100.00
62634;BME280;48704;50.534;6.442;2022-10-16T09:05:54;95576.34;;;13.52;100.00
62634;BME280;48704;50.534;6.442;2022-10-16T09:08:43;95584.56;;;13.61;100.00
62634;BME280;48704;50.534;6.442;2022-10-16T09:11:20;95586.31;;;13.95;100.00
62634;BME280;48704;50.534;6.442;2022-10-16T09:13:55;95583.91;;;14.20;100.00
62634;BME280;48704;50.534;6.442;2022-10-16T09:16:34;95588.91;;;14.53;100.00
62634;BME280;48704;50.534;6.442;2022-10-16T09:19:12;95582.59;;;14.63;100.00
62634;BME280;48704;50.534;6.442;2022-10-16T09:21:42;95587.13;;;14.50;100.00
62634;BME280;48704;50.534;6.442;2022-10-16T09:24:14;95590.41;;;14.43;100.00
62634;BME280;48704;50.534;6.442;2022-10-16T09:26:41;95580.41;;;14.36;100.00
62634;BME280;48704;50.534;6.442;2022-10-16T09:29:08;95588.34;;;14.37;100.00
62634;BME280;48704;50.534;6.442;2022-10-16T09:31:36;95591.84;;;14.27;100.00
62634;BME280;48704;50.534;6.442;2022-10-16T09:34:03;95590.22;;;14.57;100.00
62634;BME280;48704;50.534;6.442;2022-10-16T09:36:39;95591.75;;;14.58;100.00
62634;BME280;48704;50.534;6.442;2022-10-16T09:39:08;95589.16;;;14.49;100.00
62634;BME280;48704;50.534;6.442;2022-10-16T09:41:35;95591.91;;;14.38;100.00
62634;BME280;48704;50.534;6.442;2022-10-16T09:44:03;95584.09;;;14.59;100.00
62634;BME280;48704;50.534;6.442;2022-10-16T09:46:35;95593.09;;;14.80;100.00
62634;BME280;48704;50.534;6.442;2022-10-16T09:49:25;95612.94;;;14.65;100.00
62634;BME280;48704;50.534;6.442;2022-10-16T09:52:02;95600.38;;;14.49;100.00
62634;BME280;48704;50.534;6.442;2022-10-16T09:54:27;95596.03;;;14.43;100.00
62634;BME280;48704;50.534;6.442;2022-10-16T09:57:07;95602.03;;;14.84;100.00
62634;BME280;48704;50.534;6.442;2022-10-16T09:59:32;95585.78;;;15.32;100.00
62634;BME280;48704;50.534;6.442;2022-10-16T10:02:02;95581.34;;;16.32;100.00
62634;BME280;48704;50.534;6.442;2022-10-16T10:04:39;95586.06;;;17.17;98.64
62634;BME280;48704;50.534;6.442;2022-10-16T10:07:07;95581.31;;;17.36;97.35
62634;BME280;48704;50.534;6.442;2022-10-16T10:09:44;95581.81;;;17.05;97.01
62634;BME280;48704;50.534;6.442;2022-10-16T10:12:25;95573.69;;;17.67;93.37
62634;BME280;48704;50.534;6.442;2022-10-16T10:14:56;95580.66;;;18.39;88.71
62634;BME280;48704;50.534;6.442;2022-10-16T10:17:27;95578.91;;;18.12;85.01
62634;BME280;48704;50.534;6.442;2022-10-16T10:20:21;95578.88;;;17.52;85.49
62634;BME280;48704;50.534;6.442;2022-10-16T10:22:45;95574.22;;;17.60;87.05
62634;BME280;48704;50.534;6.442;2022-10-16T10:28:38;95590.50;;;19.13;83.30
62634;BME280;48704;50.534;6.442;2022-10-16T10:31:03;95592.19;;;19.22;79.95
62634;BME280;48704;50.534;6.442;2022-10-16T10:33:54;95585.53;;;19.70;78.42
62634;BME280;48704;50.534;6.442;2022-10-16T10:36:37;95593.44;;;19.90;72.14
62634;BME280;48704;50.534;6.442;2022-10-16T10:47:32;95594.25;;;18.59;77.31
62634;BME280;48704;50.534;6.442;2022-10-16T10:52:53;95597.97;;;18.24;79.08
62634;BME280;48704;50.534;6.442;2022-10-16T10:55:54;95593.25;;;19.00;78.57
62634;BME280;48704;50.534;6.442;2022-10-16T11:01:15;95592.94;;;19.60;74.90
62634;BME280;48704;50.534;6.442;2022-10-16T11:04:06;95600.28;;;18.26;82.03
62634;BME280;48704;50.534;6.442;2022-10-16T11:06:43;95605.13;;;17.77;83.15
62634;BME280;48704;50.534;6.442;2022-10-16T11:09:18;95601.53;;;17.41;87.88
62634;BME280;48704;50.534;6.442;2022-10-16T11:11:50;95606.50;;;17.59;85.02
62634;BME280;48704;50.534;6.442;2022-10-16T11:14:46;95604.84;;;17.45;87.35
62634;BME280;48704;50.534;6.442;2022-10-16T11:17:19;95607.50;;;17.26;89.38
62634;BME280;48704;50.534;6.442;2022-10-16T11:19:51;95620.03;;;16.78;88.99
62634;BME280;48704;50.534;6.442;2022-10-16T11:22:34;95615.72;;;16.71;90.65
62634;BME280;48704;50.534;6.442;2022-10-16T11:30:29;95630.38;;;16.48;95.00
62634;BME280;48704;50.534;6.442;2022-10-16T11:44:18;95622.44;;;16.46;100.00
62634;BME280;48704;50.534;6.442;2022-10-16T11:47:16;95624.13;;;15.91;100.00
62634;BME280;48704;50.534;6.442;2022-10-16T11:49:45;95623.19;;;16.58;100.00
62634;BME280;48704;50.534;6.442;2022-10-16T11:52:27;95619.50;;;15.77;100.00
62634;BME280;48704;50.534;6.442;2022-10-16T11:55:04;95618.22;;;15.89;100.00
62634;BME280;48704;50.534;6.442;2022-10-16T11:57:39;95619.75;;;15.90;100.00
62634;BME280;48704;50.534;6.442;2022-10-16T12:00:23;95620.78;;;15.93;100.00
62634;BME280;48704;50.534;6.442;2022-10-16T12:08:21;95623.06;;;16.05;100.00
62634;BME280;48704;50.534;6.442;2022-10-16T12:10:47;95626.16;;;15.96;100.00
62634;BME280;48704;50.534;6.442;2022-10-16T12:13:37;95628.19;;;15.79;100.00
62634;BME280;48704;50.534;6.442;2022-10-16T12:18:38;95628.97;;;15.74;100.00
62634;BME280;48704;50.534;6.442;2022-10-16T12:21:04;95627.41;;;15.51;100.00
62634;BME280;48704;50.534;6.442;2022-10-16T12:23:38;95635.84;;;15.51;100.00
62634;BME280;48704;50.534;6.442;2022-10-16T12:26:11;95636.31;;;15.21;100.00
62634;BME280;48704;50.534;6.442;2022-10-16T12:28:36;95636.28;;;15.10;100.00
62634;BME280;48704;50.534;6.442;2022-10-16T12:31:07;95632.19;;;15.22;100.00
62634;BME280;48704;50.534;6.442;2022-10-16T12:33:40;95619.50;;;15.55;100.00
62634;BME280;48704;50.534;6.442;2022-10-16T12:36:14;95615.16;;;15.82;100.00
62634;BME280;48704;50.534;6.442;2022-10-16T12:38:48;95621.78;;;16.07;100.00
62634;BME280;48704;50.534;6.442;2022-10-16T12:41:30;95620.47;;;16.30;100.00
62634;BME280;48704;50.534;6.442;2022-10-16T12:43:56;95626.00;;;16.52;100.00
62634;BME280;48704;50.534;6.442;2022-10-16T12:49:14;95619.72;;;16.18;100.00
62634;BME280;48704;50.534;6.442;2022-10-16T12:51:44;95617.94;;;15.98;100.00
62634;BME280;48704;50.534;6.442;2022-10-16T12:54:12;95616.69;;;15.71;100.00
62634;BME280;48704;50.534;6.442;2022-10-16T12:59:59;95619.00;;;15.67;100.00
62634;BME280;48704;50.534;6.442;2022-10-16T13:16:40;95623.09;;;15.94;100.00
62634;BME280;48704;50.534;6.442;2022-10-16T13:22:06;95616.63;;;16.22;100.00
62634;BME280;48704;50.534;6.442;2022-10-16T13:24:48;95618.63;;;16.44;100.00
62634;BME280;48704;50.534;6.442;2022-10-16T13:30:17;95626.56;;;16.39;100.00
62634;BME280;48704;50.534;6.442;2022-10-16T13:32:46;95618.13;;;16.39;100.00
62634;BME280;48704;50.534;6.442;2022-10-16T13:35:47;95611.41;;;17.17;100.00
62634;BME280;48704;50.534;6.442;2022-10-16T13:38:15;95614.09;;;17.40;100.00
62634;BME280;48704;50.534;6.442;2022-10-16T13:43:21;95620.84;;;17.20;100.00
62634;BME280;48704;50.534;6.442;2022-10-16T13:46:02;95615.13;;;17.72;100.00
62634;BME280;48704;50.534;6.442;2022-10-16T13:48:30;95617.28;;;17.55;100.00
62634;BME280;48704;50.534;6.442;2022-10-16T13:51:05;95619.78;;;17.64;100.00
62634;BME280;48704;50.534;6.442;2022-10-16T13:53:33;95629.94;;;16.96;100.00
62634;BME280;48704;50.534;6.442;2022-10-16T13:55:59;95624.31;;;16.96;100.00
62634;BME280;48704;50.534;6.442;2022-10-16T13:58:25;95625.88;;;16.91;100.00
62634;BME280;48704;50.534;6.442;2022-10-16T14:00:58;95616.19;;;16.87;100.00
62634;BME280;48704;50.534;6.442;2022-10-16T14:03:25;95620.56;;;16.77;100.00
62634;BME280;48704;50.534;6.442;2022-10-16T14:05:57;95614.69;;;16.75;100.00
62634;BME280;48704;50.534;6.442;2022-10-16T14:08:24;95621.91;;;16.64;100.00
62634;BME280;48704;50.534;6.442;2022-10-16T14:10:55;95628.09;;;16.35;100.00
62634;BME280;48704;50.534;6.442;2022-10-16T14:13:40;95626.38;;;16.15;100.00
62634;BME280;48704;50.534;6.442;2022-10-16T14:16:18;95636.81;;;16.26;100.00
62634;BME280;48704;50.534;6.442;2022-10-16T14:18:46;95633.50;;;16.22;100.00
62634;BME280;48704;50.534;6.442;2022-10-16T14:21:16;95620.00;;;16.03;100.00
62634;BME280;48704;50.534;6.442;2022-10-16T14:23:42;95623.56;;;15.98;100.00
62634;BME280;48704;50.534;6.442;2022-10-16T14:28:34;95623.84;;;15.84;100.00
62634;BME280;48704;50.534;6.442;2022-10-16T14:31:01;95632.28;;;15.78;100.00
62634;BME280;48704;50.534;6.442;2022-10-16T14:36:15;95621.56;;;15.71;100.00